2VA2 weather

Melville Airstrip
Surry, Virginia, United States

Public forecast

Using degrees Fahrenheit for public forecast. Weather courtesy of forecast.io.

Closest aviation weather report (METAR) to Melville Airstrip

Closest report is Williamsburg Jamestown Airport, 6.6 nm (12.3 km) NNE. Retrieved 2020/01/28 22:35 UTC (0 seconds ago):

KJGG 282235Z AUTO 00000KT 10SM OVC050 08/M02 A2998 RMK AO1

Closest aviation forecast (TAF) to Melville Airstrip

Closest forecast is Felker Army Air Field, 8.7 nm (16.1 km) E. Retrieved 2020/01/28 19:55 UTC (2 hours ago):

TAF KFAF 281900Z 2819/3001 33012G18KT 9999 OVC050 QNH2990INS BECMG 2821/2822 VRB06KT 9999 OVC045 QNH2991INS BECMG 2913/2914 34010G15KT 9999 SCT035 QNH3009INS BECMG 2921/2922 VRB06KT 9999 FEW030 QNH3007INS TX09/2820Z TN02/2912Z LAST NO AMDS AFT 2904 NEXT 2911